Time,TemperatureF,DewpointF,PressureIn,WindDirection,WindDirectionDegrees,WindSpeedMPH,WindSpeedGustMPH,Humidity,HourlyPrecipIn,Conditions,Clouds,dailyrainin,SoftwareType,DateUTC
2013-06-29 00:00:00,66.1,57.2,29.50,NNW,342,1.8,3.5,73,0.00,CLR,SKC,0.02,WeatherDisplay:10.37,2013-06-29 05:00:00,
2013-06-29 00:05:00,66.1,57.2,29.50,North,349,2.2,4.0,73,0.00,RA,SKC,0.00,WeatherDisplay:10.37,2013-06-29 05:05:00,
2013-06-29 00:10:00,66.1,57.2,29.50,North,350,0.8,3.5,73,0.00,RA,SKC,0.00,WeatherDisplay:10.37,2013-06-29 05:10:00,
2013-06-29 00:15:00,66.0,57.1,29.50,North,355,1.4,3.5,73,0.00,CLR,SKC,0.00,WeatherDisplay:10.37,2013-06-29 05:15:00,
2013-06-29 00:20:00,66.0,57.5,29.50,North,355,1.8,3.5,74,0.00,CLR,SKC,0.00,WeatherDisplay:10.37,2013-06-29 05:20:00,
2013-06-29 00:25:00,66.0,57.5,29.50,North,355,1.7,3.5,74,0.00,CLR,SKC,0.00,WeatherDisplay:10.37,2013-06-29 05:25:00,
2013-06-29 00:30:00,65.9,57.4,29.50,North,355,1.5,3.5,74,0.00,CLR,SKC,0.00,WeatherDisplay:10.37,2013-06-29 05:30:00,
2013-06-29 00:35:00,65.9,57.4,29.50,North,355,0.1,2.3,74,0.00,CLR,SKC,0.00,WeatherDisplay:10.37,2013-06-29 05:35:00,
2013-06-29 00:40:00,65.9,57.4,29.50,North,355,0.8,3.5,74,0.00,CLR,SKC,0.00,WeatherDisplay:10.37,2013-06-29 05:40:00,
2013-06-29 00:45:00,65.8,57.3,29.50,North,355,1.0,3.0,74,0.00,CLR,SKC,0.00,WeatherDisplay:10.37,2013-06-29 05:45:00,
2013-06-29 00:50:00,65.7,57.2,29.50,North,355,0.6,2.3,74,0.00,CLR,SKC,0.00,WeatherDisplay:10.37,2013-06-29 05:50:00,
2013-06-29 00:55:00,65.5,57.0,29.50,North,355,0.4,3.5,74,0.00,SCT,SKC,0.00,WeatherDisplay:10.37,2013-06-29 05:55:00,
2013-06-29 01:00:00,65.4,56.9,29.50,North,355,1.4,3.5,74,0.00,SCT,SKC,0.00,WeatherDisplay:10.37,2013-06-29 06:00:00,
2013-06-29 01:05:00,65.4,56.9,29.50,North,355,0.3,2.3,74,0.00,SCT,SKC,0.00,WeatherDisplay:10.37,2013-06-29 06:05:00,
2013-06-29 01:10:00,65.4,56.9,29.50,North,355,0.3,2.3,74,0.00,SCT,SKC,0.00,WeatherDisplay:10.37,2013-06-29 06:10:00,
2013-06-29 01:15:00,65.4,56.9,29.50,North,355,0.5,3.5,74,0.00,SCT,SKC,0.00,WeatherDisplay:10.37,2013-06-29 06:15:00,
2013-06-29 01:20:00,65.3,56.8,29.50,North,355,0.6,3.5,74,0.00,SCT,SKC,0.00,WeatherDisplay:10.37,2013-06-29 06:20:00,
2013-06-29 01:25:00,65.2,56.7,29.50,North,355,0.6,3.5,74,0.00,SCT,SKC,0.00,WeatherDisplay:10.37,2013-06-29 06:25:00,
2013-06-29 01:30:00,65.2,56.7,29.49,North,355,0.6,2.3,74,0.00,SCT,SKC,0.00,WeatherDisplay:10.37,2013-06-29 06:30:00,
2013-06-29 01:35:00,65.0,56.5,29.49,North,355,1.2,3.5,74,0.00,SCT,SKC,0.00,WeatherDisplay:10.37,2013-06-29 06:35:00,
2013-06-29 01:40:00,65.0,56.5,29.49,North,355,0.4,2.3,74,0.00,SCT,SKC,0.00,WeatherDisplay:10.37,2013-06-29 06:40:00,
2013-06-29 01:45:00,64.9,56.4,29.49,North,355,0.3,2.3,74,0.00,SCT,SKC,0.00,WeatherDisplay:10.37,2013-06-29 06:45:00,
2013-06-29 01:50:00,64.9,56.4,29.49,North,355,0.1,3.5,74,0.00,SCT,SKC,0.00,WeatherDisplay:10.37,2013-06-29 06:50:00,
2013-06-29 01:55:00,64.8,56.3,29.49,North,355,0.7,3.0,74,0.00,SCT,SKC,0.00,WeatherDisplay:10.37,2013-06-29 06:55:00,
2013-06-29 02:00:00,64.7,56.6,29.49,North,355,1.0,3.5,75,0.00,SCT,SKC,0.00,WeatherDisplay:10.37,2013-06-29 07:00:00,
2013-06-29 02:05:00,64.7,56.6,29.49,North,355,1.1,4.0,75,0.00,SCT,SKC,0.00,WeatherDisplay:10.37,2013-06-29 07:05:00,
2013-06-29 02:10:00,64.7,56.6,29.49,North,355,1.1,3.5,75,0.00,SCT,SKC,0.00,WeatherDisplay:10.37,2013-06-29 07:10:00,
2013-06-29 02:15:00,64.7,56.6,29.49,North,355,0.9,3.5,75,0.00,SCT,SKC,0.00,WeatherDisplay:10.37,2013-06-29 07:15:00,
2013-06-29 02:20:00,64.7,56.6,29.49,North,355,1.0,2.3,75,0.00,SCT,SKC,0.00,WeatherDisplay:10.37,2013-06-29 07:20:00,
2013-06-29 02:25:00,64.7,56.6,29.49,NNW,341,0.3,3.5,75,0.00,SCT,SKC,0.00,WeatherDisplay:10.37,2013-06-29 07:25:00,
2013-06-29 02:30:00,64.7,56.6,29.49,NNW,341,0.3,3.5,75,0.00,SCT,SKC,0.00,WeatherDisplay:10.37,2013-06-29 07:30:00,
2013-06-29 02:35:00,64.7,56.6,29.49,NNW,341,1.0,3.5,75,0.00,CLR,SKC,0.00,WeatherDisplay:10.37,2013-06-29 07:35:00,
2013-06-29 02:40:00,64.6,56.5,29.49,NNW,341,0.6,3.5,75,0.00,CLR,SKC,0.00,WeatherDisplay:10.37,2013-06-29 07:40:00,
2013-06-29 02:45:00,64.5,56.4,29.49,NNW,341,1.2,3.5,75,0.00,CLR,SKC,0.00,WeatherDisplay:10.37,2013-06-29 07:45:00,
2013-06-29 02:50:00,64.5,56.4,29.49,NNW,341,0.6,2.3,75,0.00,CLR,SKC,0.00,WeatherDisplay:10.37,2013-06-29 07:50:00,
2013-06-29 02:55:00,64.4,56.3,29.49,NNW,341,0.3,2.0,75,0.00,SCT,SKC,0.00,WeatherDisplay:10.37,2013-06-29 07:55:00,
2013-06-29 03:00:00,64.3,56.2,29.49,NNW,341,0.1,1.2,75,0.00,SCT,SKC,0.00,WeatherDisplay:10.37,2013-06-29 08:00:00,
2013-06-29 03:05:00,64.2,56.1,29.49,NNW,341,0.5,2.3,75,0.00,SCT,SKC,0.00,WeatherDisplay:10.37,2013-06-29 08:05:00,
2013-06-29 03:10:00,64.2,56.1,29.49,NNW,341,0.4,1.2,75,0.00,SCT,SKC,0.00,WeatherDisplay:10.37,2013-06-29 08:10:00,
2013-06-29 03:15:00,64.1,56.0,29.49,NNW,341,0.2,2.3,75,0.00,SCT,SKC,0.00,WeatherDisplay:10.37,2013-06-29 08:15:00,
2013-06-29 03:20:00,64.1,56.0,29.49,NNW,341,0.7,3.0,75,0.00,SCT,SKC,0.00,WeatherDisplay:10.37,2013-06-29 08:20:00,
2013-06-29 03:25:00,64.1,56.0,29.49,NNW,341,1.0,3.0,75,0.00,SCT,SKC,0.00,WeatherDisplay:10.37,2013-06-29 08:25:00,
2013-06-29 03:30:00,64.1,56.0,29.49,NNW,341,0.2,2.3,75,0.00,SCT,SKC,0.00,WeatherDisplay:10.37,2013-06-29 08:30:00,
2013-06-29 03:35:00,64.1,56.0,29.49,NNW,341,0.1,1.2,75,0.00,CLR,SKC,0.00,WeatherDisplay:10.37,2013-06-29 08:35:00,
2013-06-29 03:40:00,64.1,56.0,29.49,NNW,341,0.2,1.2,75,0.00,CLR,SKC,0.00,WeatherDisplay:10.37,2013-06-29 08:40:00,
2013-06-29 03:45:00,64.1,56.0,29.49,NNW,341,0.5,2.3,75,0.00,CLR,SKC,0.00,WeatherDisplay:10.37,2013-06-29 08:45:00,
2013-06-29 03:50:00,64.1,56.0,29.49,NNW,341,1.4,3.5,75,0.00,CLR,SKC,0.00,WeatherDisplay:10.37,2013-06-29 08:50:00,
2013-06-29 03:55:00,64.2,56.1,29.49,NNW,341,0.7,3.5,75,0.00,SCT,SKC,0.00,WeatherDisplay:10.37,2013-06-29 08:55:00,
2013-06-29 04:00:00,64.2,56.1,29.49,NNW,341,0.6,3.5,75,0.00,SCT,SKC,0.00,WeatherDisplay:10.37,2013-06-29 09:00:00,
2013-06-29 04:05:00,64.3,56.2,29.49,NNW,341,0.7,3.5,75,0.00,SCT,SKC,0.00,WeatherDisplay:10.37,2013-06-29 09:05:00,
2013-06-29 04:10:00,64.3,56.2,29.49,NNW,341,0.9,2.3,75,0.00,SCT,SKC,0.00,WeatherDisplay:10.37,2013-06-29 09:10:00,
2013-06-29 04:15:00,64.3,56.2,29.49,NNW,341,0.8,2.0,75,0.00,BKN,SKC,0.00,WeatherDisplay:10.37,2013-06-29 09:15:00,
2013-06-29 04:20:00,64.3,56.2,29.49,NNW,341,0.8,3.5,75,0.00,BKN,SKC,0.00,WeatherDisplay:10.37,2013-06-29 09:20:00,
2013-06-29 04:25:00,64.3,56.2,29.49,NNW,341,1.2,2.3,75,0.00,BKN,SKC,0.00,WeatherDisplay:10.37,2013-06-29 09:25:00,
2013-06-29 04:30:00,64.1,56.0,29.49,NNW,341,0.5,3.5,75,0.00,BKN,SKC,0.00,WeatherDisplay:10.37,2013-06-29 09:30:00,
2013-06-29 04:35:00,64.1,56.0,29.49,NNW,341,0.5,2.3,75,0.00,OVC,SKC,0.00,WeatherDisplay:10.37,2013-06-29 09:35:00,
2013-06-29 04:40:00,64.1,56.0,29.49,NNW,341,1.1,3.0,75,0.00,OVC,SKC,0.00,WeatherDisplay:10.37,2013-06-29 09:40:00,
2013-06-29 04:45:00,64.1,56.0,29.49,NNW,341,0.7,2.3,75,0.00,OVC,SKC,0.00,WeatherDisplay:10.37,2013-06-29 09:45:00,
2013-06-29 04:50:00,64.1,56.0,29.49,NNW,329,0.6,3.5,75,0.00,OVC,SKC,0.00,WeatherDisplay:10.37,2013-06-29 09:50:00,
2013-06-29 04:55:00,64.1,56.0,29.49,NNW,329,0.7,2.3,75,0.00,BKN,SKC,0.00,WeatherDisplay:10.37,2013-06-29 09:55:00,
2013-06-29 05:00:00,64.1,56.0,29.49,NNW,329,0.4,2.3,75,0.00,BKN,SKC,0.00,WeatherDisplay:10.37,2013-06-29 10:00:00,
2013-06-29 05:05:00,64.1,56.0,29.49,NNW,329,0.0,2.3,75,0.00,BKN,SKC,0.00,WeatherDisplay:10.37,2013-06-29 10:05:00,
2013-06-29 05:11:00,64.0,55.9,29.49,NNW,329,0.1,1.2,75,0.00,BKN,SKC,0.00,WeatherDisplay:10.37,2013-06-29 10:11:00,
2013-06-29 05:16:00,64.0,55.9,29.49,NNW,329,0.4,2.3,75,0.00,BKN,SKC,0.00,WeatherDisplay:10.37,2013-06-29 10:16:00,
2013-06-29 05:21:00,63.9,55.8,29.49,NNW,329,0.2,1.2,75,0.00,BKN,SKC,0.00,WeatherDisplay:10.37,2013-06-29 10:21:00,
2013-06-29 05:26:00,63.8,55.7,29.49,NNW,329,0.3,2.3,75,0.00,BKN,SKC,0.00,WeatherDisplay:10.37,2013-06-29 10:26:00,
2013-06-29 05:31:00,63.6,55.5,29.49,NNW,329,1.0,2.3,75,0.00,BKN,SKC,0.00,WeatherDisplay:10.37,2013-06-29 10:31:00,
2013-06-29 05:36:00,63.5,55.4,29.49,NNW,329,1.1,2.3,75,0.00,BKN,SKC,0.00,WeatherDisplay:10.37,2013-06-29 10:36:00,
2013-06-29 05:41:00,63.4,55.3,29.48,NNW,329,0.9,2.3,75,0.00,BKN,SKC,0.00,WeatherDisplay:10.37,2013-06-29 10:41:00,
2013-06-29 05:46:00,63.2,55.1,29.48,NNW,329,1.0,2.3,75,0.00,BKN,SKC,0.00,WeatherDisplay:10.37,2013-06-29 10:46:00,
2013-06-29 05:51:00,63.1,55.0,29.48,NNW,329,1.5,3.5,75,0.00,BKN,SKC,0.00,WeatherDisplay:10.37,2013-06-29 10:51:00,
2013-06-29 05:56:00,63.0,54.9,29.48,NNW,329,0.7,2.3,75,0.00,SCT,SKC,0.00,WeatherDisplay:10.37,2013-06-29 10:56:00,
2013-06-29 06:01:00,62.9,54.9,29.48,NNW,329,1.9,3.5,75,0.00,SCT,SKC,0.00,WeatherDisplay:10.37,2013-06-29 11:01:00,
2013-06-29 06:06:00,62.9,54.9,29.48,NNW,329,1.9,3.5,75,0.00,SCT,SKC,0.00,WeatherDisplay:10.37,2013-06-29 11:06:00,
2013-06-29 06:11:00,62.8,54.8,29.48,NNW,329,0.9,3.5,75,0.00,SCT,SKC,0.00,WeatherDisplay:10.37,2013-06-29 11:11:00,
2013-06-29 06:16:00,62.9,54.9,29.48,NNW,329,1.8,3.5,75,0.00,BKN,SKC,0.00,WeatherDisplay:10.37,2013-06-29 11:16:00,
2013-06-29 06:21:00,62.9,54.9,29.48,NNW,329,1.5,3.5,75,0.00,BKN,SKC,0.00,WeatherDisplay:10.37,2013-06-29 11:21:00,
2013-06-29 06:26:00,63.0,54.9,29.48,NNW,329,1.2,3.5,75,0.00,BKN,SKC,0.00,WeatherDisplay:10.37,2013-06-29 11:26:00,
2013-06-29 06:31:00,63.1,55.0,29.49,NNW,329,0.8,3.5,75,0.00,BKN,SKC,0.00,WeatherDisplay:10.37,2013-06-29 11:31:00,
2013-06-29 06:36:00,63.2,55.1,29.49,NNW,329,0.8,2.3,75,0.00,BKN,SKC,0.00,WeatherDisplay:10.37,2013-06-29 11:36:00,
2013-06-29 06:41:00,63.2,55.1,29.49,NNW,329,0.7,2.3,75,0.00,BKN,SKC,0.00,WeatherDisplay:10.37,2013-06-29 11:41:00,
2013-06-29 06:46:00,63.2,55.1,29.49,NNW,329,0.6,2.3,75,0.00,BKN,SKC,0.00,WeatherDisplay:10.37,2013-06-29 11:46:00,
2013-06-29 06:51:00,63.2,55.1,29.49,NNW,329,0.9,3.5,75,0.00,BKN,SKC,0.00,WeatherDisplay:10.37,2013-06-29 11:51:00,
2013-06-29 06:56:00,63.1,55.0,29.49,NNW,329,0.4,2.3,75,0.04,RA,SKC,0.06,WeatherDisplay:10.37,2013-06-29 11:56:00,
2013-06-29 07:01:00,63.0,54.9,29.49,NNW,329,0.2,2.3,75,0.09,RA,SKC,0.09,WeatherDisplay:10.37,2013-06-29 12:01:00,
2013-06-29 07:06:00,62.9,54.9,29.49,NNW,329,3.5,5.0,75,0.11,RA,SKC,0.12,WeatherDisplay:10.37,2013-06-29 12:06:00,
2013-06-29 07:11:00,62.6,54.6,29.50,NNE,14,2.8,7.0,75,0.16,RA,SKC,0.16,WeatherDisplay:10.37,2013-06-29 12:11:00,
2013-06-29 07:16:00,61.8,53.8,29.49,NNE,16,1.4,3.5,75,0.22,RA,SKC,0.22,WeatherDisplay:10.37,2013-06-29 12:16:00,
2013-06-29 07:21:00,61.3,53.3,29.50,NNE,14,3.4,4.6,75,0.22,RA,SKC,0.22,WeatherDisplay:10.37,2013-06-29 12:21:00,
2013-06-29 07:27:00,61.1,53.1,29.50,North,360,3.8,6.9,75,0.22,BKN,SKC,0.22,WeatherDisplay:10.37,2013-06-29 12:27:00,
2013-06-29 07:32:00,60.8,52.8,29.51,North,360,2.4,4.0,75,0.23,RA,SKC,0.23,WeatherDisplay:10.37,2013-06-29 12:32:00,
2013-06-29 07:37:00,60.6,52.6,29.51,North,360,2.3,4.6,75,0.24,RA,SKC,0.24,WeatherDisplay:10.37,2013-06-29 12:37:00,
2013-06-29 07:42:00,60.4,52.4,29.51,North,360,1.4,3.5,75,0.27,RA,SKC,0.27,WeatherDisplay:10.37,2013-06-29 12:42:00,
2013-06-29 07:47:00,60.4,52.4,29.51,North,350,0.8,2.3,75,0.28,RA,SKC,0.28,WeatherDisplay:10.37,2013-06-29 12:47:00,
2013-06-29 07:52:00,60.4,52.4,29.51,North,349,0.7,3.0,75,0.28,RA,SKC,0.29,WeatherDisplay:10.37,2013-06-29 12:52:00,
2013-06-29 07:57:00,60.5,52.5,29.51,North,360,3.2,5.0,75,0.24,RA,SKC,0.30,WeatherDisplay:10.37,2013-06-29 12:57:00,
2013-06-29 08:02:00,60.7,52.7,29.52,North,360,1.4,4.6,75,0.21,RA,SKC,0.30,WeatherDisplay:10.37,2013-06-29 13:02:00,
2013-06-29 08:07:00,60.8,52.8,29.52,North,360,2.1,4.0,75,0.18,OVC,SKC,0.30,WeatherDisplay:10.37,2013-06-29 13:07:00,
2013-06-29 08:12:00,61.0,53.0,29.52,North,360,2.5,4.6,75,0.14,OVC,SKC,0.30,WeatherDisplay:10.37,2013-06-29 13:12:00,
2013-06-29 08:17:00,61.2,53.2,29.52,North,355,1.9,5.8,75,0.08,OVC,SKC,0.30,WeatherDisplay:10.37,2013-06-29 13:17:00,
2013-06-29 08:22:00,61.4,53.4,29.52,North,355,2.5,6.0,75,0.09,RA,SKC,0.31,WeatherDisplay:10.37,2013-06-29 13:22:00,
2013-06-29 08:27:00,61.6,53.6,29.52,North,355,1.3,6.0,75,0.09,RA,SKC,0.31,WeatherDisplay:10.37,2013-06-29 13:27:00,
2013-06-29 08:32:00,61.7,53.7,29.52,North,355,1.1,3.5,75,0.08,OVC,SKC,0.31,WeatherDisplay:10.37,2013-06-29 13:32:00,
2013-06-29 08:37:00,61.8,53.8,29.53,North,355,0.7,3.5,75,0.07,OVC,SKC,0.31,WeatherDisplay:10.37,2013-06-29 13:37:00,
2013-06-29 08:42:00,61.9,53.9,29.53,North,355,2.2,4.6,75,0.04,OVC,SKC,0.31,WeatherDisplay:10.37,2013-06-29 13:42:00,
2013-06-29 08:47:00,61.9,53.9,29.53,North,355,1.2,4.6,75,0.03,OVC,SKC,0.31,WeatherDisplay:10.37,2013-06-29 13:47:00,
2013-06-29 08:52:00,62.1,54.1,29.53,North,5,3.5,8.0,75,0.02,OVC,SKC,0.31,WeatherDisplay:10.37,2013-06-29 13:52:00,
2013-06-29 08:57:00,62.3,54.3,29.53,North,5,3.9,6.9,75,0.01,OVC,SKC,0.31,WeatherDisplay:10.37,2013-06-29 13:57:00,
2013-06-29 09:02:00,62.3,53.9,29.53,North,360,4.0,8.0,74,0.01,OVC,SKC,0.31,WeatherDisplay:10.37,2013-06-29 14:02:00,
2013-06-29 09:07:00,62.2,53.8,29.53,North,360,4.4,8.1,74,0.01,OVC,SKC,0.31,WeatherDisplay:10.37,2013-06-29 14:07:00,
2013-06-29 09:12:00,62.2,53.8,29.53,North,350,5.8,8.0,74,0.01,OVC,SKC,0.31,WeatherDisplay:10.37,2013-06-29 14:12:00,
2013-06-29 09:17:00,62.1,54.1,29.53,North,351,3.0,5.8,75,0.01,OVC,SKC,0.31,WeatherDisplay:10.37,2013-06-29 14:17:00,
2013-06-29 09:22:00,62.2,53.8,29.53,North,350,1.0,3.5,74,0.00,OVC,SKC,0.31,WeatherDisplay:10.37,2013-06-29 14:22:00,
2013-06-29 09:27:00,62.2,53.8,29.54,North,355,3.1,8.1,74,0.00,OVC,SKC,0.31,WeatherDisplay:10.37,2013-06-29 14:27:00,
2013-06-29 09:32:00,62.3,53.9,29.54,North,355,4.2,7.0,74,0.00,OVC,SKC,0.31,WeatherDisplay:10.37,2013-06-29 14:32:00,
2013-06-29 09:37:00,62.3,53.9,29.54,North,355,4.0,10.4,74,0.00,OVC,SKC,0.31,WeatherDisplay:10.37,2013-06-29 14:37:00,
2013-06-29 09:42:00,62.5,54.1,29.54,North,355,3.6,8.1,74,0.00,OVC,SKC,0.31,WeatherDisplay:10.37,2013-06-29 14:42:00,
2013-06-29 09:47:00,62.7,54.7,29.54,North,351,6.2,11.5,75,0.00,OVC,SKC,0.31,WeatherDisplay:10.37,2013-06-29 14:47:00,
2013-06-29 09:52:00,62.7,54.7,29.54,NNW,346,4.7,8.1,75,0.00,OVC,SKC,0.31,WeatherDisplay:10.37,2013-06-29 14:52:00,
2013-06-29 09:57:00,62.9,54.9,29.55,North,360,5.7,8.1,75,0.00,OVC,SKC,0.31,WeatherDisplay:10.37,2013-06-29 14:57:00,
2013-06-29 10:02:00,63.0,54.9,29.55,North,349,4.7,8.1,75,0.00,OVC,SKC,0.31,WeatherDisplay:10.37,2013-06-29 15:02:00,
2013-06-29 10:07:00,63.0,54.9,29.55,NNW,348,7.0,13.8,75,0.00,OVC,SKC,0.31,WeatherDisplay:10.37,2013-06-29 15:07:00,
2013-06-29 10:12:00,63.1,55.0,29.55,North,355,6.9,15.0,75,0.00,OVC,SKC,0.31,WeatherDisplay:10.37,2013-06-29 15:12:00,
2013-06-29 10:17:00,63.1,55.0,29.55,NNW,336,7.7,11.0,75,0.00,OVC,SKC,0.31,WeatherDisplay:10.37,2013-06-29 15:17:00,
2013-06-29 10:22:00,63.1,55.0,29.56,NNW,337,5.4,12.0,75,0.00,OVC,SKC,0.31,WeatherDisplay:10.37,2013-06-29 15:22:00,
2013-06-29 10:28:00,63.4,55.3,29.56,North,355,5.7,13.0,75,0.00,OVC,SKC,0.31,WeatherDisplay:10.37,2013-06-29 15:28:00,
2013-06-29 10:33:00,63.8,56.1,29.56,NNW,343,6.0,11.5,76,0.00,OVC,SKC,0.31,WeatherDisplay:10.37,2013-06-29 15:33:00,
2013-06-29 10:38:00,63.8,55.7,29.56,North,355,3.9,11.5,75,0.00,OVC,SKC,0.31,WeatherDisplay:10.37,2013-06-29 15:38:00,
2013-06-29 10:43:00,63.5,55.4,29.56,NNW,342,4.3,9.2,75,0.00,OVC,SKC,0.31,WeatherDisplay:10.37,2013-06-29 15:43:00,
2013-06-29 10:48:00,63.4,55.3,29.56,NNW,340,6.9,14.0,75,0.00,OVC,SKC,0.31,WeatherDisplay:10.37,2013-06-29 15:48:00,
2013-06-29 10:53:00,63.4,55.3,29.56,NNW,345,5.0,9.2,75,0.00,OVC,SKC,0.31,WeatherDisplay:10.37,2013-06-29 15:53:00,
2013-06-29 10:58:00,63.9,55.8,29.56,NNW,348,4.5,12.0,75,0.00,OVC,SKC,0.31,WeatherDisplay:10.37,2013-06-29 15:58:00,
2013-06-29 11:03:00,64.6,56.5,29.56,North,350,5.5,9.2,75,0.00,OVC,SKC,0.31,WeatherDisplay:10.37,2013-06-29 16:03:00,
2013-06-29 11:08:00,65.3,57.2,29.56,NNW,333,5.6,10.4,75,0.00,OVC,SKC,0.31,WeatherDisplay:10.37,2013-06-29 16:08:00,
2013-06-29 11:13:00,66.4,58.2,29.56,NNW,342,7.9,12.0,75,0.00,OVC,SKC,0.31,WeatherDisplay:10.37,2013-06-29 16:13:00,
2013-06-29 11:18:00,67.1,58.5,29.56,NW,315,7.5,11.5,74,0.00,OVC,SKC,0.31,WeatherDisplay:10.37,2013-06-29 16:18:00,
2013-06-29 11:23:00,67.6,59.0,29.56,NNE,16,8.9,14.0,74,0.00,OVC,SKC,0.31,WeatherDisplay:10.37,2013-06-29 16:23:00,
2013-06-29 11:28:00,68.1,59.1,29.56,NNW,344,7.7,10.0,73,0.00,OVC,SKC,0.31,WeatherDisplay:10.37,2013-06-29 16:28:00,
2013-06-29 11:33:00,69.0,60.4,29.56,NNW,348,5.7,9.2,74,0.00,OVC,SKC,0.31,WeatherDisplay:10.37,2013-06-29 16:33:00,
2013-06-29 11:38:00,69.5,60.8,29.56,NNW,346,10.9,16.0,74,0.00,OVC,SKC,0.31,WeatherDisplay:10.37,2013-06-29 16:38:00,
2013-06-29 11:43:00,68.9,60.3,29.57,NNW,341,6.5,10.4,74,0.00,OVC,SKC,0.31,WeatherDisplay:10.37,2013-06-29 16:43:00,
2013-06-29 11:48:00,69.3,60.7,29.57,North,349,9.3,12.7,74,0.00,OVC,SKC,0.31,WeatherDisplay:10.37,2013-06-29 16:48:00,
2013-06-29 11:53:00,69.1,60.5,29.57,North,355,5.4,11.0,74,0.00,BKN,SKC,0.31,WeatherDisplay:10.37,2013-06-29 16:53:00,
2013-06-29 11:58:00,68.1,59.5,29.57,NNW,344,8.5,15.0,74,0.00,BKN,SKC,0.31,WeatherDisplay:10.37,2013-06-29 16:58:00,
2013-06-29 12:03:00,67.9,59.3,29.57,NNW,346,7.1,12.0,74,0.00,BKN,SKC,0.31,WeatherDisplay:10.37,2013-06-29 17:03:00,
2013-06-29 12:08:00,68.6,60.0,29.57,NNW,330,6.9,13.0,74,0.00,BKN,SKC,0.31,WeatherDisplay:10.37,2013-06-29 17:08:00,
2013-06-29 12:13:00,69.6,60.9,29.58,NNW,328,7.3,13.8,74,0.00,SCT,SKC,0.31,WeatherDisplay:10.37,2013-06-29 17:13:00,
2013-06-29 12:18:00,70.2,61.1,29.58,NNW,332,9.6,15.0,73,0.00,SCT,SKC,0.31,WeatherDisplay:10.37,2013-06-29 17:18:00,
2013-06-29 12:23:00,70.8,61.3,29.58,NNW,347,9.7,17.3,72,0.00,SCT,SKC,0.31,WeatherDisplay:10.37,2013-06-29 17:23:00,
2013-06-29 12:28:00,71.3,61.8,29.58,NNW,345,8.2,13.8,72,0.00,SCT,SKC,0.31,WeatherDisplay:10.37,2013-06-29 17:28:00,
2013-06-29 12:33:00,71.7,62.2,29.58,NNW,342,8.2,12.0,72,0.00,SCT,SKC,0.31,WeatherDisplay:10.37,2013-06-29 17:33:00,
2013-06-29 12:38:00,71.6,61.3,29.58,NNW,335,11.5,18.4,70,0.00,SCT,SKC,0.31,WeatherDisplay:10.37,2013-06-29 17:38:00,
2013-06-29 12:43:00,71.2,60.5,29.58,North,360,9.1,13.0,69,0.00,SCT,SKC,0.31,WeatherDisplay:10.37,2013-06-29 17:43:00,
2013-06-29 12:48:00,70.3,60.1,29.58,NNW,348,6.3,16.1,70,0.00,SCT,SKC,0.31,WeatherDisplay:10.37,2013-06-29 17:48:00,
2013-06-29 12:53:00,69.5,59.7,29.58,North,355,7.0,10.0,71,0.00,SCT,SKC,0.31,WeatherDisplay:10.37,2013-06-29 17:53:00,
2013-06-29 12:58:00,70.4,60.1,29.58,North,355,11.3,14.0,70,0.00,SCT,SKC,0.31,WeatherDisplay:10.37,2013-06-29 17:58:00,
2013-06-29 13:03:00,71.5,60.0,29.58,NNW,331,12.0,17.3,67,0.00,SCT,SKC,0.31,WeatherDisplay:10.37,2013-06-29 18:03:00,
2013-06-29 13:08:00,71.7,59.3,29.58,NNW,334,9.8,17.3,65,0.00,SCT,SKC,0.31,WeatherDisplay:10.37,2013-06-29 18:08:00,
2013-06-29 13:13:00,70.6,59.5,29.59,North,351,8.3,12.0,68,0.00,SCT,SKC,0.31,WeatherDisplay:10.37,2013-06-29 18:13:00,
2013-06-29 13:18:00,70.2,60.4,29.59,NNW,341,7.1,11.5,71,0.00,SCT,SKC,0.31,WeatherDisplay:10.37,2013-06-29 18:18:00,
2013-06-29 13:23:00,70.4,60.5,29.59,North,355,8.9,13.0,71,0.00,SCT,SKC,0.31,WeatherDisplay:10.37,2013-06-29 18:23:00,
2013-06-29 13:28:00,70.8,60.5,29.59,North,355,8.5,13.8,70,0.00,SCT,SKC,0.31,WeatherDisplay:10.37,2013-06-29 18:28:00,
2013-06-29 13:33:00,71.4,59.0,29.59,North,351,7.9,14.0,65,0.00,BKN,SKC,0.31,WeatherDisplay:10.37,2013-06-29 18:33:00,
2013-06-29 13:38:00,71.4,60.3,29.59,North,350,8.5,13.0,68,0.00,BKN,SKC,0.31,WeatherDisplay:10.37,2013-06-29 18:38:00,
2013-06-29 13:43:00,72.1,59.7,29.60,North,5,9.8,17.0,65,0.00,BKN,SKC,0.31,WeatherDisplay:10.37,2013-06-29 18:43:00,
2013-06-29 13:48:00,72.1,59.7,29.60,NNW,339,8.9,15.0,65,0.00,BKN,SKC,0.31,WeatherDisplay:10.37,2013-06-29 18:48:00,
2013-06-29 13:53:00,71.9,59.9,29.60,NNE,12,10.1,18.4,66,0.00,BKN,SKC,0.31,WeatherDisplay:10.37,2013-06-29 18:53:00,
2013-06-29 13:58:00,71.5,57.8,29.60,NNE,30,11.9,16.0,62,0.00,BKN,SKC,0.31,WeatherDisplay:10.37,2013-06-29 18:58:00,
2013-06-29 14:03:00,72.0,58.7,29.60,NNE,15,9.1,18.4,63,0.00,BKN,SKC,0.31,WeatherDisplay:10.37,2013-06-29 19:03:00,
2013-06-29 14:08:00,71.9,58.6,29.60,North,349,9.0,13.0,63,0.00,BKN,SKC,0.31,WeatherDisplay:10.37,2013-06-29 19:08:00,
2013-06-29 14:13:00,71.9,58.6,29.60,NNW,346,8.5,15.0,63,0.00,SCT,SKC,0.31,WeatherDisplay:10.37,2013-06-29 19:13:00,
2013-06-29 14:18:00,72.3,59.4,29.60,North,350,10.2,18.0,64,0.00,SCT,SKC,0.31,WeatherDisplay:10.37,2013-06-29 19:18:00,
2013-06-29 14:23:00,72.8,59.5,29.60,North,5,7.9,14.0,63,0.00,SCT,SKC,0.31,WeatherDisplay:10.37,2013-06-29 19:23:00,
2013-06-29 14:28:00,72.4,58.6,29.60,NNW,340,9.3,14.0,62,0.00,SCT,SKC,0.31,WeatherDisplay:10.37,2013-06-29 19:28:00,
2013-06-29 14:33:00,72.4,60.4,29.60,North,355,7.4,11.5,66,0.00,SCT,SKC,0.31,WeatherDisplay:10.37,2013-06-29 19:33:00,
2013-06-29 14:38:00,73.0,58.8,29.60,NNW,341,7.4,12.7,61,0.00,SCT,SKC,0.31,WeatherDisplay:10.37,2013-06-29 19:38:00,
2013-06-29 14:43:00,72.8,59.9,29.60,North,351,6.7,11.0,64,0.00,SCT,SKC,0.31,WeatherDisplay:10.37,2013-06-29 19:43:00,
2013-06-29 14:48:00,72.9,59.6,29.60,North,9,6.4,10.4,63,0.00,SCT,SKC,0.31,WeatherDisplay:10.37,2013-06-29 19:48:00,
2013-06-29 14:53:00,72.7,59.4,29.60,NNW,331,6.3,11.5,63,0.00,SCT,SKC,0.31,WeatherDisplay:10.37,2013-06-29 19:53:00,
2013-06-29 14:58:00,72.4,59.1,29.60,NNW,345,6.1,9.2,63,0.00,SCT,SKC,0.31,WeatherDisplay:10.37,2013-06-29 19:58:00,
2013-06-29 15:03:00,72.9,60.0,29.60,NNW,339,8.5,13.8,64,0.00,SCT,SKC,0.31,WeatherDisplay:10.37,2013-06-29 20:03:00,
2013-06-29 15:08:00,73.0,60.1,29.60,North,5,7.5,12.7,64,0.00,SCT,SKC,0.31,WeatherDisplay:10.37,2013-06-29 20:08:00,
2013-06-29 15:13:00,73.7,60.8,29.61,NNW,330,6.0,11.5,64,0.00,CLR,SKC,0.31,WeatherDisplay:10.37,2013-06-29 20:13:00,
2013-06-29 15:18:00,74.1,60.7,29.61,NNW,348,5.8,11.5,63,0.00,CLR,SKC,0.31,WeatherDisplay:10.37,2013-06-29 20:18:00,
2013-06-29 15:23:00,73.9,60.5,29.60,NNW,341,6.3,10.0,63,0.00,CLR,SKC,0.31,WeatherDisplay:10.37,2013-06-29 20:23:00,
2013-06-29 15:28:00,73.3,60.8,29.60,NNW,342,5.4,10.4,65,0.00,CLR,SKC,0.31,WeatherDisplay:10.37,2013-06-29 20:28:00,
2013-06-29 15:33:00,73.1,60.6,29.61,NNW,344,6.3,9.2,65,0.00,CLR,SKC,0.31,WeatherDisplay:10.37,2013-06-29 20:33:00,
2013-06-29 15:38:00,72.9,60.4,29.61,North,355,2.6,5.0,65,0.00,CLR,SKC,0.31,WeatherDisplay:10.37,2013-06-29 20:38:00,
2013-06-29 15:43:00,72.7,60.7,29.61,NNW,341,4.2,8.1,66,0.00,CLR,SKC,0.31,WeatherDisplay:10.37,2013-06-29 20:43:00,
2013-06-29 15:48:00,72.4,60.8,29.61,NNW,347,0.8,5.0,67,0.00,CLR,SKC,0.31,WeatherDisplay:10.37,2013-06-29 20:48:00,
2013-06-29 15:53:00,72.5,60.5,29.61,North,355,5.7,12.0,66,0.00,SCT,SKC,0.31,WeatherDisplay:10.37,2013-06-29 20:53:00,
2013-06-29 15:58:00,72.9,60.4,29.61,North,355,4.9,8.1,65,0.00,SCT,SKC,0.31,WeatherDisplay:10.37,2013-06-29 20:58:00,
2013-06-29 16:03:00,72.9,61.3,29.60,North,355,6.7,9.2,67,0.00,SCT,SKC,0.31,WeatherDisplay:10.37,2013-06-29 21:03:00,
2013-06-29 16:08:00,72.6,59.7,29.60,North,360,6.0,11.0,64,0.00,SCT,SKC,0.31,WeatherDisplay:10.37,2013-06-29 21:08:00,
2013-06-29 16:13:00,72.5,60.1,29.60,North,355,4.7,8.1,65,0.00,SCT,SKC,0.31,WeatherDisplay:10.37,2013-06-29 21:13:00,
2013-06-29 16:18:00,72.6,61.0,29.61,North,10,0.0,9.0,67,0.00,SCT,SKC,0.31,WeatherDisplay:10.37,2013-06-29 21:18:00,
2013-06-29 16:23:00,72.8,60.8,29.61,NNW,346,5.9,9.2,66,0.00,RA,SKC,0.31,WeatherDisplay:10.37,2013-06-29 21:23:00,
2013-06-29 16:28:00,72.6,60.6,29.61,NE,38,5.2,11.5,66,0.00,RA,SKC,0.31,WeatherDisplay:10.37,2013-06-29 21:28:00,
2013-06-29 16:33:00,71.7,61.0,29.61,NE,39,4.6,11.0,69,0.00,SCT,SKC,0.31,WeatherDisplay:10.37,2013-06-29 21:33:00,
2013-06-29 16:38:00,70.3,59.6,29.61,North,9,4.2,9.0,69,0.00,SCT,SKC,0.31,WeatherDisplay:10.37,2013-06-29 21:38:00,
2013-06-29 16:43:00,69.4,60.0,29.61,North,5,3.0,7.0,72,0.00,CLR,SKC,0.31,WeatherDisplay:10.37,2013-06-29 21:43:00,
2013-06-29 16:48:00,68.7,59.3,29.61,North,355,4.7,7.0,72,0.00,CLR,SKC,0.31,WeatherDisplay:10.37,2013-06-29 21:48:00,
2013-06-29 16:53:00,68.7,58.9,29.62,North,5,4.6,9.2,71,0.00,CLR,SKC,0.31,WeatherDisplay:10.37,2013-06-29 21:53:00,
2013-06-29 16:58:00,69.0,59.2,29.61,North,5,4.1,7.0,71,0.00,CLR,SKC,0.31,WeatherDisplay:10.37,2013-06-29 21:58:00,
2013-06-29 17:03:00,69.2,59.8,29.62,North,355,3.2,5.8,72,0.00,CLR,SKC,0.31,WeatherDisplay:10.37,2013-06-29 22:03:00,
2013-06-29 17:08:00,69.4,60.0,29.62,North,355,3.8,6.0,72,0.00,CLR,SKC,0.31,WeatherDisplay:10.37,2013-06-29 22:08:00,
2013-06-29 17:13:00,69.7,60.7,29.62,NNW,344,4.7,7.0,73,0.00,CLR,SKC,0.31,WeatherDisplay:10.37,2013-06-29 22:13:00,
2013-06-29 17:18:00,69.8,60.0,29.62,NNW,348,2.8,8.1,71,0.00,CLR,SKC,0.31,WeatherDisplay:10.37,2013-06-29 22:18:00,
2013-06-29 17:23:00,69.9,60.1,29.62,NE,40,4.1,7.0,71,0.00,CLR,SKC,0.31,WeatherDisplay:10.37,2013-06-29 22:23:00,
2013-06-29 17:28:00,70.1,60.3,29.62,North,355,4.5,6.9,71,0.00,CLR,SKC,0.31,WeatherDisplay:10.37,2013-06-29 22:28:00,
2013-06-29 17:33:00,70.2,60.4,29.62,NE,43,3.9,6.0,71,0.00,SCT,SKC,0.31,WeatherDisplay:10.37,2013-06-29 22:33:00,
2013-06-29 17:38:00,70.3,60.4,29.62,North,355,3.5,5.8,71,0.00,SCT,SKC,0.31,WeatherDisplay:10.37,2013-06-29 22:38:00,
2013-06-29 17:43:00,70.5,60.6,29.62,NNW,345,4.8,7.0,71,0.00,SCT,SKC,0.31,WeatherDisplay:10.37,2013-06-29 22:43:00,
2013-06-29 17:49:00,70.7,60.8,29.62,NNW,348,4.2,7.0,71,0.00,SCT,SKC,0.31,WeatherDisplay:10.37,2013-06-29 22:49:00,
2013-06-29 17:54:00,70.6,60.7,29.62,North,355,3.0,6.0,71,0.00,BKN,SKC,0.31,WeatherDisplay:10.37,2013-06-29 22:54:00,
2013-06-29 17:59:00,70.5,60.6,29.62,North,351,3.8,7.0,71,0.00,BKN,SKC,0.31,WeatherDisplay:10.37,2013-06-29 22:59:00,
2013-06-29 18:04:00,70.4,60.5,29.62,North,355,2.3,4.0,71,0.00,BKN,SKC,0.31,WeatherDisplay:10.37,2013-06-29 23:04:00,
2013-06-29 18:09:00,70.3,60.4,29.62,North,350,2.6,3.5,71,0.00,BKN,SKC,0.31,WeatherDisplay:10.37,2013-06-29 23:09:00,
2013-06-29 18:14:00,70.2,60.4,29.62,North,355,2.6,4.6,71,0.00,SCT,SKC,0.31,WeatherDisplay:10.37,2013-06-29 23:14:00,
2013-06-29 18:19:00,70.3,60.4,29.62,North,350,1.8,4.0,71,0.00,SCT,SKC,0.31,WeatherDisplay:10.37,2013-06-29 23:19:00,
2013-06-29 18:24:00,70.4,60.5,29.62,North,355,3.3,6.0,71,0.00,SCT,SKC,0.31,WeatherDisplay:10.37,2013-06-29 23:24:00,
2013-06-29 18:29:00,70.9,61.4,29.62,NNW,348,2.1,4.6,72,0.00,SCT,SKC,0.31,WeatherDisplay:10.37,2013-06-29 23:29:00,
2013-06-29 18:34:00,71.5,61.2,29.62,North,360,3.0,8.1,70,0.00,SCT,SKC,0.31,WeatherDisplay:10.37,2013-06-29 23:34:00,
2013-06-29 18:39:00,71.6,60.5,29.62,North,350,4.7,7.0,68,0.00,SCT,SKC,0.31,WeatherDisplay:10.37,2013-06-29 23:39:00,
2013-06-29 18:44:00,71.3,60.2,29.62,North,351,5.5,7.0,68,0.00,BKN,SKC,0.31,WeatherDisplay:10.37,2013-06-29 23:44:00,
2013-06-29 18:49:00,71.1,60.4,29.62,North,5,3.8,6.0,69,0.00,BKN,SKC,0.31,WeatherDisplay:10.37,2013-06-29 23:49:00,
2013-06-29 18:54:00,71.0,60.3,29.62,North,349,5.4,9.0,69,0.00,BKN,SKC,0.31,WeatherDisplay:10.37,2013-06-29 23:54:00,
2013-06-29 18:59:00,71.0,60.3,29.62,North,355,3.4,4.6,69,0.00,BKN,SKC,0.31,WeatherDisplay:10.37,2013-06-29 23:59:00,
2013-06-29 19:04:00,71.0,59.9,29.62,North,355,4.9,8.1,68,0.00,BKN,SKC,0.31,WeatherDisplay:10.37,2013-06-30 00:04:00,
2013-06-29 19:09:00,71.0,60.3,29.63,NNW,348,4.7,7.0,69,0.00,BKN,SKC,0.31,WeatherDisplay:10.37,2013-06-30 00:09:00,
2013-06-29 19:14:00,71.0,59.5,29.63,North,350,5.9,10.0,67,0.00,BKN,SKC,0.31,WeatherDisplay:10.37,2013-06-30 00:14:00,
2013-06-29 19:19:00,71.0,59.5,29.63,NNE,13,3.2,5.8,67,0.00,BKN,SKC,0.31,WeatherDisplay:10.37,2013-06-30 00:19:00,
2013-06-29 19:24:00,70.9,60.2,29.63,NNE,19,1.3,8.1,69,0.00,BKN,SKC,0.31,WeatherDisplay:10.37,2013-06-30 00:24:00,
2013-06-29 19:29:00,70.8,60.5,29.63,ENE,57,2.9,5.0,70,0.00,BKN,SKC,0.31,WeatherDisplay:10.37,2013-06-30 00:29:00,
2013-06-29 19:34:00,70.7,60.4,29.64,ENE,58,2.1,4.6,70,0.00,BKN,SKC,0.31,WeatherDisplay:10.37,2013-06-30 00:34:00,
2013-06-29 19:39:00,70.5,60.2,29.64,ENE,57,2.9,5.0,70,0.00,BKN,SKC,0.31,WeatherDisplay:10.37,2013-06-30 00:39:00,
2013-06-29 19:44:00,70.4,59.7,29.64,NE,49,3.2,7.0,69,0.00,BKN,SKC,0.31,WeatherDisplay:10.37,2013-06-30 00:44:00,
2013-06-29 19:49:00,70.1,59.9,29.64,ENE,58,2.6,4.6,70,0.00,BKN,SKC,0.31,WeatherDisplay:10.37,2013-06-30 00:49:00,
2013-06-29 19:54:00,69.8,59.2,29.64,NE,49,2.4,5.8,69,0.00,SCT,SKC,0.31,WeatherDisplay:10.37,2013-06-30 00:54:00,
2013-06-29 19:59:00,69.6,59.4,29.65,NE,49,0.6,4.0,70,0.00,SCT,SKC,0.31,WeatherDisplay:10.37,2013-06-30 00:59:00,
2013-06-29 20:04:00,69.3,59.5,29.65,NE,49,0.9,3.5,71,0.00,SCT,SKC,0.31,WeatherDisplay:10.37,2013-06-30 01:04:00,
2013-06-29 20:09:00,69.0,59.2,29.65,NE,49,1.1,3.5,71,0.00,SCT,SKC,0.31,WeatherDisplay:10.37,2013-06-30 01:09:00,
2013-06-29 20:14:00,68.8,59.4,29.65,NE,49,0.0,0.0,72,0.00,BKN,SKC,0.31,WeatherDisplay:10.37,2013-06-30 01:14:00,
2013-06-29 20:19:00,68.6,59.2,29.65,NE,49,0.3,1.2,72,0.00,BKN,SKC,0.31,WeatherDisplay:10.37,2013-06-30 01:19:00,
2013-06-29 20:25:00,68.5,59.5,29.65,NE,49,0.1,1.2,73,0.00,BKN,SKC,0.31,WeatherDisplay:10.37,2013-06-30 01:25:00,
2013-06-29 20:30:00,68.3,59.3,29.65,NE,49,0.1,1.0,73,0.00,BKN,SKC,0.31,WeatherDisplay:10.37,2013-06-30 01:30:00,
2013-06-29 20:36:00,68.1,59.1,29.65,NE,49,0.0,1.2,73,0.00,OVC,SKC,0.31,WeatherDisplay:10.37,2013-06-30 01:36:00,
2013-06-29 20:41:00,68.0,59.4,29.65,NE,49,0.1,1.0,74,0.00,OVC,SKC,0.31,WeatherDisplay:10.37,2013-06-30 01:41:00,
2013-06-29 20:46:00,67.7,59.1,29.65,NE,49,0.7,2.0,74,0.00,OVC,SKC,0.31,WeatherDisplay:10.37,2013-06-30 01:46:00,
2013-06-29 20:51:00,67.5,58.9,29.65,NE,49,1.0,2.3,74,0.00,OVC,SKC,0.31,WeatherDisplay:10.37,2013-06-30 01:51:00,
2013-06-29 20:56:00,67.3,58.7,29.66,NE,49,0.0,0.0,74,0.00,OVC,SKC,0.31,WeatherDisplay:10.37,2013-06-30 01:56:00,
2013-06-29 21:01:00,67.1,58.5,29.66,NE,49,0.0,1.2,74,0.00,OVC,SKC,0.31,WeatherDisplay:10.37,2013-06-30 02:01:00,
2013-06-29 21:06:00,66.9,58.3,29.66,NE,49,0.0,0.0,74,0.00,OVC,SKC,0.31,WeatherDisplay:10.37,2013-06-30 02:06:00,
2013-06-29 21:11:00,66.7,57.8,29.66,NE,49,0.0,0.0,73,0.00,OVC,SKC,0.31,WeatherDisplay:10.37,2013-06-30 02:11:00,
2013-06-29 21:16:00,66.5,57.6,29.66,NE,49,0.0,0.0,73,0.00,BKN,SKC,0.31,WeatherDisplay:10.37,2013-06-30 02:16:00,
2013-06-29 21:21:00,66.2,57.3,29.67,NE,49,0.0,0.0,73,0.00,BKN,SKC,0.31,WeatherDisplay:10.37,2013-06-30 02:21:00,
2013-06-29 21:26:00,66.0,57.1,29.67,NE,49,0.0,0.0,73,0.00,BKN,SKC,0.31,WeatherDisplay:10.37,2013-06-30 02:26:00,
2013-06-29 21:31:00,65.8,56.9,29.67,NE,49,0.0,0.0,73,0.00,BKN,SKC,0.31,WeatherDisplay:10.37,2013-06-30 02:31:00,
2013-06-29 21:36:00,65.7,57.2,29.67,NE,49,0.0,1.0,74,0.00,SCT,SKC,0.31,WeatherDisplay:10.37,2013-06-30 02:36:00,
2013-06-29 21:41:00,65.7,57.2,29.67,NE,49,0.0,1.0,74,0.00,SCT,SKC,0.31,WeatherDisplay:10.37,2013-06-30 02:41:00,
2013-06-29 21:46:00,65.7,57.2,29.67,NE,49,0.0,1.2,74,0.00,SCT,SKC,0.31,WeatherDisplay:10.37,2013-06-30 02:46:00,
2013-06-29 21:51:00,65.6,56.7,29.67,NE,49,0.0,0.0,73,0.00,SCT,SKC,0.31,WeatherDisplay:10.37,2013-06-30 02:51:00,
2013-06-29 21:56:00,65.6,56.7,29.67,NE,49,0.1,1.2,73,0.00,SCT,SKC,0.31,WeatherDisplay:10.37,2013-06-30 02:56:00,
2013-06-29 22:01:00,65.6,56.7,29.67,NE,49,0.0,0.0,73,0.00,SCT,SKC,0.31,WeatherDisplay:10.37,2013-06-30 03:01:00,
2013-06-29 22:06:00,65.7,57.2,29.67,NE,44,0.1,2.3,74,0.00,SCT,SKC,0.31,WeatherDisplay:10.37,2013-06-30 03:06:00,
2013-06-29 22:11:00,65.8,57.3,29.68,NE,44,2.0,3.5,74,0.00,SCT,SKC,0.31,WeatherDisplay:10.37,2013-06-30 03:11:00,
2013-06-29 22:16:00,65.7,57.2,29.68,NNE,29,2.2,5.0,74,0.00,SCT,SKC,0.31,WeatherDisplay:10.37,2013-06-30 03:16:00,
2013-06-29 22:18:00,65.6,57.1,29.68,NNE,28,3.4,4.6,74,0.00,SCT,SKC,0.31,WeatherDisplay:10.37,2013-06-30 03:18:00,
2013-06-29 22:23:00,65.3,56.8,29.68,NNE,15,2.7,4.0,74,0.00,SCT,SKC,0.31,WeatherDisplay:10.37,2013-06-30 03:23:00,
2013-06-29 22:28:00,65.0,56.5,29.68,NNE,15,2.4,3.5,74,0.00,SCT,SKC,0.31,WeatherDisplay:10.37,2013-06-30 03:28:00,
2013-06-29 22:33:00,64.7,56.2,29.68,NNE,15,0.0,2.3,74,0.00,CLR,SKC,0.31,WeatherDisplay:10.37,2013-06-30 03:33:00,
2013-06-29 22:38:00,64.5,56.0,29.68,NNE,15,0.9,3.5,74,0.00,CLR,SKC,0.31,WeatherDisplay:10.37,2013-06-30 03:38:00,
2013-06-29 22:43:00,64.2,55.7,29.68,NNE,15,0.1,2.3,74,0.00,CLR,SKC,0.31,WeatherDisplay:10.37,2013-06-30 03:43:00,
2013-06-29 22:48:00,64.0,55.5,29.68,NNE,15,0.2,1.2,74,0.00,CLR,SKC,0.31,WeatherDisplay:10.37,2013-06-30 03:48:00,
2013-06-29 22:53:00,63.8,55.4,29.68,NNE,15,0.7,3.5,74,0.00,CLR,SKC,0.31,WeatherDisplay:10.37,2013-06-30 03:53:00,
2013-06-29 22:58:00,63.7,55.3,29.68,NNE,15,1.5,3.0,74,0.00,CLR,SKC,0.31,WeatherDisplay:10.37,2013-06-30 03:58:00,
2013-06-29 23:01:00,63.7,55.3,29.68,NNE,15,1.7,5.8,74,0.00,CLR,SKC,0.31,WeatherDisplay:10.37,2013-06-30 04:01:00,
2013-06-29 23:02:00,63.6,55.2,29.68,NNE,15,1.4,3.5,74,0.00,CLR,SKC,0.31,WeatherDisplay:10.37,2013-06-30 04:02:00,
2013-06-29 23:04:00,63.6,55.2,29.68,NNE,15,1.0,3.5,74,0.00,CLR,SKC,0.31,WeatherDisplay:10.37,2013-06-30 04:04:00,
2013-06-29 23:07:00,63.6,55.2,29.68,NNE,15,0.7,3.5,74,0.00,CLR,SKC,0.31,WeatherDisplay:10.37,2013-06-30 04:07:00,
2013-06-29 23:09:00,63.5,55.1,29.68,NNE,15,0.5,2.3,74,0.00,CLR,SKC,0.31,WeatherDisplay:10.37,2013-06-30 04:09:00,
2013-06-29 23:14:00,63.5,55.4,29.68,NNE,15,2.6,5.0,75,0.00,CLR,SKC,0.31,WeatherDisplay:10.37,2013-06-30 04:14:00,
2013-06-29 23:19:00,63.6,55.5,29.69,NNE,15,1.3,3.5,75,0.00,CLR,SKC,0.31,WeatherDisplay:10.37,2013-06-30 04:19:00,
2013-06-29 23:24:00,63.5,55.4,29.69,NNE,15,0.8,3.5,75,0.00,CLR,SKC,0.31,WeatherDisplay:10.37,2013-06-30 04:24:00,
2013-06-29 23:29:00,63.4,55.3,29.69,North,355,3.4,8.0,75,0.00,CLR,SKC,0.31,WeatherDisplay:10.37,2013-06-30 04:29:00,
2013-06-29 23:34:00,63.2,54.8,29.69,North,355,3.0,5.0,74,0.00,CLR,SKC,0.31,WeatherDisplay:10.37,2013-06-30 04:34:00,
2013-06-29 23:39:00,63.1,54.7,29.69,North,355,4.3,6.9,74,0.00,CLR,SKC,0.31,WeatherDisplay:10.37,2013-06-30 04:39:00,
2013-06-29 23:44:00,62.9,54.5,29.69,North,355,3.7,6.0,74,0.00,CLR,SKC,0.31,WeatherDisplay:10.37,2013-06-30 04:44:00,
2013-06-29 23:49:00,62.7,54.3,29.69,North,350,3.8,6.9,74,0.00,CLR,SKC,0.31,WeatherDisplay:10.37,2013-06-30 04:49:00,
2013-06-29 23:54:00,62.4,54.0,29.69,North,350,3.8,5.8,74,0.00,CLR,SKC,0.31,WeatherDisplay:10.37,2013-06-30 04:54:00,
2013-06-29 23:59:00,62.2,53.8,29.69,North,350,3.5,5.8,74,0.00,CLR,SKC,0.31,WeatherDisplay:10.37,2013-06-30 04:59:00,